createdAt,value
2023-03-16T00:00:09.503Z,99953.80
2023-03-16T00:00:19.537Z,99951.76
2023-03-16T00:00:29.936Z,99957.21
2023-03-16T00:00:39.512Z,99954.45
2023-03-16T00:00:49.567Z,99955.58
2023-03-16T00:00:59.463Z,99954.28
2023-03-16T00:01:09.519Z,99956.73
2023-03-16T00:01:19.572Z,99957.05
2023-03-16T00:01:29.437Z,99953.23
2023-03-16T00:01:39.527Z,99956.73
2023-03-16T00:01:49.529Z,99958.14
2023-03-16T00:01:59.541Z,99955.58
2023-03-16T00:02:09.676Z,99956.19
2023-03-16T00:02:19.735Z,99952.81
2023-03-16T00:02:29.525Z,99958.31
2023-03-16T00:02:39.531Z,99957.82
2023-03-16T00:02:49.550Z,99955.27
2023-03-16T00:02:59.515Z,99952.81
2023-03-16T00:03:09.545Z,99958.25
2023-03-16T00:03:19.666Z,99954.07
2023-03-16T00:03:29.518Z,99956.95
2023-03-16T00:03:39.596Z,99955.00
2023-03-16T00:03:49.566Z,99954.20
2023-03-16T00:03:59.501Z,99958.96
2023-03-16T00:04:09.515Z,99958.96
2023-03-16T00:04:19.515Z,99956.73
2023-03-16T00:04:29.503Z,99962.11
2023-03-16T00:04:39.467Z,99957.97
2023-03-16T00:04:49.516Z,99963.69
2023-03-16T00:04:59.547Z,99955.43
2023-03-16T00:05:09.618Z,99955.19
2023-03-16T00:05:19.511Z,99955.23
2023-03-16T00:05:29.591Z,99958.50
2023-03-16T00:05:39.504Z,99958.98
2023-03-16T00:05:49.466Z,99959.68
2023-03-16T00:05:59.491Z,99959.44
2023-03-16T00:06:09.525Z,99956.75
2023-03-16T00:06:19.453Z,99960.12
2023-03-16T00:06:29.474Z,99958.22
2023-03-16T00:06:39.495Z,99954.31
2023-03-16T00:06:49.505Z,99959.69
2023-03-16T00:06:59.537Z,99957.98
2023-03-16T00:07:09.513Z,99958.42
2023-03-16T00:07:19.471Z,99955.29
2023-03-16T00:07:29.450Z,99959.86
2023-03-16T00:07:39.545Z,99960.78
2023-03-16T00:07:49.562Z,99962.30
2023-03-16T00:07:59.553Z,99960.83
2023-03-16T00:08:09.518Z,99961.98
2023-03-16T00:08:19.533Z,99963.22
2023-03-16T00:08:29.465Z,99959.68
2023-03-16T00:08:39.512Z,99966.69
2023-03-16T00:08:49.527Z,99962.62
2023-03-16T00:08:59.522Z,99968.28
2023-03-16T00:09:09.441Z,99964.53
2023-03-16T00:09:19.452Z,99959.09
2023-03-16T00:09:29.499Z,99964.33
2023-03-16T00:09:39.567Z,99962.73
2023-03-16T00:09:49.465Z,99962.41
2023-03-16T00:09:59.430Z,99964.49
2023-03-16T00:10:09.465Z,99960.41
2023-03-16T00:10:19.546Z,99962.77
2023-03-16T00:10:29.702Z,99963.20
2023-03-16T00:10:39.522Z,99962.77
2023-03-16T00:10:49.439Z,99957.05
2023-03-16T00:10:59.538Z,99958.03
2023-03-16T00:11:09.523Z,99957.55
2023-03-16T00:11:19.434Z,99961.28
2023-03-16T00:11:29.550Z,99959.45
2023-03-16T00:11:39.498Z,99959.99
2023-03-16T00:11:49.493Z,99959.98
2023-03-16T00:11:59.556Z,99962.11
2023-03-16T00:12:09.546Z,99958.85
2023-03-16T00:12:19.593Z,99958.11
2023-03-16T00:12:29.439Z,99961.31
2023-03-16T00:12:39.519Z,99958.54
2023-03-16T00:12:49.450Z,99962.69
2023-03-16T00:12:59.511Z,99963.78
2023-03-16T00:13:09.441Z,99965.30
2023-03-16T00:13:19.482Z,99964.75
2023-03-16T00:13:29.531Z,99961.88
2023-03-16T00:13:39.483Z,99967.20
2023-03-16T00:13:49.578Z,99964.92
2023-03-16T00:13:59.438Z,99968.46
2023-03-16T00:14:09.475Z,99964.39
2023-03-16T00:14:19.472Z,99965.59
2023-03-16T00:14:29.464Z,99962.05
2023-03-16T00:14:39.523Z,99962.29
2023-03-16T00:14:49.489Z,99965.55
2023-03-16T00:14:59.432Z,99956.91
2023-03-16T00:15:09.590Z,99960.70
2023-03-16T00:15:19.510Z,99960.16
2023-03-16T00:15:29.508Z,99959.40
2023-03-16T00:15:39.460Z,99959.67
2023-03-16T00:15:49.493Z,99959.67
2023-03-16T00:15:59.543Z,99961.46
2023-03-16T00:16:09.555Z,99966.19
2023-03-16T00:16:19.660Z,99963.43
2023-03-16T00:16:29.486Z,99964.07
2023-03-16T00:16:39.540Z,99955.34
2023-03-16T00:16:49.583Z,99959.70
2023-03-16T00:16:59.515Z,99960.08
2023-03-16T00:17:09.458Z,99958.39
2023-03-16T00:17:19.765Z,99959.64
2023-03-16T00:17:29.449Z,99961.68
2023-03-16T00:17:39.498Z,99960.05
2023-03-16T00:17:49.559Z,99962.28
2023-03-16T00:17:59.451Z,99959.95
2023-03-16T00:18:09.469Z,99963.77
2023-03-16T00:18:19.544Z,99960.11
2023-03-16T00:18:29.452Z,99959.02
2023-03-16T00:18:39.552Z,99963.16
2023-03-16T00:18:49.450Z,99960.52
2023-03-16T00:18:59.484Z,99959.64
2023-03-16T00:19:09.531Z,99963.39
2023-03-16T00:19:19.488Z,99961.55
2023-03-16T00:19:29.536Z,99964.74
2023-03-16T00:19:39.508Z,99963.11
2023-03-16T00:19:49.463Z,99966.16
2023-03-16T00:19:59.454Z,99963.72
2023-03-16T00:20:09.452Z,99961.92
2023-03-16T00:20:19.445Z,99966.52
2023-03-16T00:20:29.594Z,99965.54
2023-03-16T00:20:39.600Z,99964.31
2023-03-16T00:20:49.489Z,99968.25
2023-03-16T00:20:59.522Z,99969.20
2023-03-16T00:21:09.522Z,99969.28
2023-03-16T00:21:19.477Z,99960.81
2023-03-16T00:21:29.467Z,99963.81
2023-03-16T00:21:39.458Z,99963.44
2023-03-16T00:21:49.521Z,99969.42
2023-03-16T00:21:59.434Z,99968.77
2023-03-16T00:22:09.532Z,99968.23
2023-03-16T00:22:19.518Z,99967.69
2023-03-16T00:22:29.542Z,99967.25
2023-03-16T00:22:39.561Z,99967.20
2023-03-16T00:22:49.477Z,99968.99
2023-03-16T00:22:59.606Z,99966.70
2023-03-16T00:23:09.461Z,99967.84
2023-03-16T00:23:19.469Z,99968.74
2023-03-16T00:23:29.548Z,99967.16
2023-03-16T00:23:39.538Z,99967.16
2023-03-16T00:23:49.433Z,99963.24
2023-03-16T00:23:59.459Z,99966.30
2023-03-16T00:24:09.548Z,99961.00
2023-03-16T00:24:19.532Z,99963.34
2023-03-16T00:24:29.528Z,99969.83
2023-03-16T00:24:39.460Z,99966.19
2023-03-16T00:24:49.500Z,99968.38
2023-03-16T00:24:59.499Z,99959.88
2023-03-16T00:25:09.562Z,99967.52
2023-03-16T00:25:19.546Z,99965.52
2023-03-16T00:25:29.467Z,99967.62
2023-03-16T00:25:39.487Z,99960.62
2023-03-16T00:25:49.436Z,99962.90
2023-03-16T00:25:59.512Z,99965.14
2023-03-16T00:26:09.450Z,99968.20
2023-03-16T00:26:19.462Z,99963.45
2023-03-16T00:26:29.557Z,99965.20
2023-03-16T00:26:39.526Z,99962.59
2023-03-16T00:26:49.573Z,99964.83
2023-03-16T00:26:59.477Z,99961.23
2023-03-16T00:27:09.481Z,99966.95
2023-03-16T00:27:19.478Z,99963.52
2023-03-16T00:27:29.587Z,99962.55
2023-03-16T00:27:39.505Z,99963.48
2023-03-16T00:27:49.473Z,99963.03
2023-03-16T00:27:59.526Z,99962.11
2023-03-16T00:28:09.550Z,99966.95
2023-03-16T00:28:19.551Z,99963.69
2023-03-16T00:28:29.442Z,99967.11
2023-03-16T00:28:39.432Z,99969.24
2023-03-16T00:28:49.547Z,99970.70
2023-03-16T00:28:59.453Z,99971.69
2023-03-16T00:29:09.565Z,99968.02
2023-03-16T00:29:19.537Z,99969.07
2023-03-16T00:29:29.510Z,99961.89
2023-03-16T00:29:39.487Z,99963.20
2023-03-16T00:29:49.492Z,99965.80
2023-03-16T00:29:59.558Z,99968.60
2023-03-16T00:30:09.565Z,99965.06
2023-03-16T00:30:19.505Z,99961.91
2023-03-16T00:30:29.706Z,99965.39
2023-03-16T00:30:39.548Z,99964.41
2023-03-16T00:30:49.484Z,99964.36
2023-03-16T00:30:59.474Z,99960.02
2023-03-16T00:31:09.486Z,99965.18
2023-03-16T00:31:19.549Z,99965.62
2023-03-16T00:31:29.514Z,99964.03
2023-03-16T00:31:39.537Z,99964.08
2023-03-16T00:31:49.704Z,99965.88
2023-03-16T00:31:59.602Z,99964.58
2023-03-16T00:32:09.526Z,99971.11
2023-03-16T00:32:19.469Z,99965.77
2023-03-16T00:32:29.571Z,99968.86
2023-03-16T00:32:39.638Z,99972.73
2023-03-16T00:32:49.609Z,99970.45
2023-03-16T00:32:59.488Z,99964.17
2023-03-16T00:33:09.614Z,99964.67
2023-03-16T00:33:19.502Z,99964.95
2023-03-16T00:33:29.566Z,99964.34
2023-03-16T00:33:39.452Z,99971.68
2023-03-16T00:33:49.582Z,99966.91
2023-03-16T00:33:59.509Z,99968.09
2023-03-16T00:34:09.472Z,99964.67
2023-03-16T00:34:19.550Z,99968.92
2023-03-16T00:34:29.479Z,99970.38
2023-03-16T00:34:39.493Z,99968.43
2023-03-16T00:34:49.540Z,99967.28
2023-03-16T00:34:59.491Z,99970.17
2023-03-16T00:35:09.919Z,99966.95
2023-03-16T00:35:19.531Z,99968.58
2023-03-16T00:35:29.477Z,99968.42
2023-03-16T00:35:39.521Z,99964.50
2023-03-16T00:35:49.565Z,99966.74
2023-03-16T00:35:59.497Z,99963.88
2023-03-16T00:36:09.662Z,99971.14
2023-03-16T00:36:19.542Z,99967.30
2023-03-16T00:36:29.560Z,99966.32
2023-03-16T00:36:39.484Z,99965.56
2023-03-16T00:36:49.542Z,99965.59
2023-03-16T00:36:59.572Z,99966.70
2023-03-16T00:37:09.496Z,99968.49
2023-03-16T00:37:19.631Z,99970.00
2023-03-16T00:37:29.479Z,99969.30
2023-03-16T00:37:39.949Z,99969.15
2023-03-16T00:37:49.532Z,99967.03
2023-03-16T00:37:59.462Z,99965.44
2023-03-16T00:38:09.484Z,99968.60
2023-03-16T00:38:19.532Z,99969.42
2023-03-16T00:38:29.619Z,99963.66
2023-03-16T00:38:39.480Z,99965.61
2023-03-16T00:38:49.566Z,99967.98
2023-03-16T00:38:59.447Z,99966.98
2023-03-16T00:39:09.537Z,99969.12
2023-03-16T00:39:19.434Z,99964.06
2023-03-16T00:39:29.504Z,99969.23
2023-03-16T00:39:39.454Z,99969.12
2023-03-16T00:39:49.483Z,99970.19
2023-03-16T00:39:59.567Z,99967.33
2023-03-16T00:40:09.524Z,99968.41
2023-03-16T00:40:19.517Z,99972.20
2023-03-16T00:40:29.889Z,99969.11
2023-03-16T00:40:39.445Z,99971.52
2023-03-16T00:40:49.563Z,99966.12
2023-03-16T00:40:59.511Z,99971.12
2023-03-16T00:41:09.502Z,99970.37
2023-03-16T00:41:19.491Z,99971.52
2023-03-16T00:41:29.507Z,99964.98
2023-03-16T00:41:39.471Z,99970.58
2023-03-16T00:41:49.479Z,99970.53
2023-03-16T00:41:59.513Z,99972.94
2023-03-16T00:42:09.533Z,99970.59
2023-03-16T00:42:19.546Z,99970.42
2023-03-16T00:42:29.496Z,99971.89
2023-03-16T00:42:39.549Z,99972.37
2023-03-16T00:42:49.553Z,99964.88
2023-03-16T00:42:59.529Z,99970.70
2023-03-16T00:43:09.459Z,99969.17
2023-03-16T00:43:19.525Z,99969.17
2023-03-16T00:43:29.517Z,99965.55
2023-03-16T00:43:39.457Z,99969.56
2023-03-16T00:43:49.571Z,99965.34
2023-03-16T00:43:59.520Z,99963.33
2023-03-16T00:44:09.440Z,99965.28
2023-03-16T00:44:19.543Z,99964.75
2023-03-16T00:44:29.473Z,99964.41
2023-03-16T00:44:39.518Z,99962.94
2023-03-16T00:44:49.510Z,99962.67
2023-03-16T00:44:59.534Z,99967.19
2023-03-16T00:45:09.502Z,99969.95
2023-03-16T00:45:19.438Z,99959.94
2023-03-16T00:45:29.574Z,99964.60
2023-03-16T00:45:39.502Z,99966.31
2023-03-16T00:45:49.552Z,99964.72
2023-03-16T00:45:59.523Z,99962.16
2023-03-16T00:46:09.537Z,99958.14
2023-03-16T00:46:19.690Z,99963.55
2023-03-16T00:46:29.518Z,99964.89
2023-03-16T00:46:39.490Z,99966.80
2023-03-16T00:46:49.534Z,99961.91
2023-03-16T00:46:59.506Z,99967.56
2023-03-16T00:47:09.506Z,99958.69
2023-03-16T00:47:19.454Z,99960.77
2023-03-16T00:47:29.484Z,99963.53
2023-03-16T00:47:39.504Z,99963.53
2023-03-16T00:47:49.430Z,99967.52
2023-03-16T00:47:59.535Z,99961.69
2023-03-16T00:48:09.435Z,99965.56
2023-03-16T00:48:19.517Z,99961.48
2023-03-16T00:48:29.608Z,99957.78
2023-03-16T00:48:39.546Z,99959.48
2023-03-16T00:48:49.576Z,99957.97
2023-03-16T00:48:59.528Z,99961.54
2023-03-16T00:49:09.467Z,99963.67
2023-03-16T00:49:19.488Z,99962.38
2023-03-16T00:49:29.456Z,99967.20
2023-03-16T00:49:39.538Z,99965.14
2023-03-16T00:49:49.499Z,99961.31
2023-03-16T00:49:59.601Z,99966.94
2023-03-16T00:50:09.492Z,99960.39
2023-03-16T00:50:19.520Z,99962.94
2023-03-16T00:50:29.879Z,99958.59
2023-03-16T00:50:39.457Z,99960.17
2023-03-16T00:50:49.565Z,99960.33
2023-03-16T00:50:59.432Z,99961.37
2023-03-16T00:51:09.575Z,99954.88
2023-03-16T00:51:19.490Z,99966.61
2023-03-16T00:51:29.530Z,99965.47
2023-03-16T00:51:39.530Z,99960.50
2023-03-16T00:51:49.553Z,99963.88
2023-03-16T00:51:59.543Z,99957.52
2023-03-16T00:52:09.551Z,99965.02
2023-03-16T00:52:19.439Z,99961.81
2023-03-16T00:52:29.514Z,99963.55
2023-03-16T00:52:39.493Z,99958.75
2023-03-16T00:52:49.536Z,99956.52
2023-03-16T00:52:59.565Z,99961.09
2023-03-16T00:53:09.537Z,99961.09
2023-03-16T00:53:19.511Z,99958.00
2023-03-16T00:53:29.609Z,99959.47
2023-03-16T00:53:39.479Z,99961.51
2023-03-16T00:53:49.571Z,99964.17
2023-03-16T00:53:59.486Z,99962.07
2023-03-16T00:54:09.538Z,99961.19
2023-03-16T00:54:19.483Z,99964.07
2023-03-16T00:54:29.454Z,99962.16
2023-03-16T00:54:39.556Z,99961.06
2023-03-16T00:54:49.470Z,99963.05
2023-03-16T00:54:59.525Z,99965.09
2023-03-16T00:55:09.473Z,99965.05
2023-03-16T00:55:19.503Z,99961.52
2023-03-16T00:55:29.488Z,99964.50
2023-03-16T00:55:39.443Z,99967.44
2023-03-16T00:55:49.434Z,99964.66
2023-03-16T00:55:59.454Z,99966.39
2023-03-16T00:56:09.573Z,99966.83
2023-03-16T00:56:19.508Z,99965.84
2023-03-16T00:56:29.651Z,99968.12
2023-03-16T00:56:39.527Z,99963.57
2023-03-16T00:56:49.511Z,99966.61
2023-03-16T00:56:59.547Z,99965.27
2023-03-16T00:57:09.486Z,99961.92
2023-03-16T00:57:19.534Z,99969.66
2023-03-16T00:57:29.480Z,99973.09
2023-03-16T00:57:39.499Z,99968.73
2023-03-16T00:57:49.516Z,99968.91
2023-03-16T00:57:59.466Z,99966.39
2023-03-16T00:58:09.539Z,99964.98
2023-03-16T00:58:19.500Z,99967.59
2023-03-16T00:58:29.458Z,99963.03
2023-03-16T00:58:39.525Z,99966.73
2023-03-16T00:58:49.502Z,99963.41
2023-03-16T00:58:59.470Z,99963.80
2023-03-16T00:59:09.488Z,99965.52
2023-03-16T00:59:19.487Z,99963.73
2023-03-16T00:59:29.544Z,99966.83
2023-03-16T00:59:39.484Z,99966.67
2023-03-16T00:59:49.497Z,99968.14
2023-03-16T00:59:59.554Z,99965.36
2023-03-16T01:00:09.508Z,99963.29
2023-03-16T01:00:19.541Z,99961.70
2023-03-16T01:00:29.763Z,99965.29
2023-03-16T01:00:39.442Z,99967.86
2023-03-16T01:00:49.546Z,99969.45
2023-03-16T01:00:59.527Z,99971.72
2023-03-16T01:01:09.589Z,99965.35
2023-03-16T01:01:19.541Z,99965.57
2023-03-16T01:01:29.619Z,99968.45
2023-03-16T01:01:39.573Z,99968.73
2023-03-16T01:01:49.541Z,99968.95
2023-03-16T01:01:59.468Z,99960.84
2023-03-16T01:02:09.534Z,99967.66
2023-03-16T01:02:19.497Z,99967.16
2023-03-16T01:02:29.515Z,99963.33
2023-03-16T01:02:39.561Z,99966.92
2023-03-16T01:02:49.527Z,99966.02
2023-03-16T01:02:59.536Z,99964.55
2023-03-16T01:03:09.588Z,99963.50
2023-03-16T01:03:19.540Z,99967.44
2023-03-16T01:03:29.738Z,99964.98
2023-03-16T01:03:39.568Z,99960.13
2023-03-16T01:03:49.566Z,99965.58
2023-03-16T01:03:59.462Z,99963.95
2023-03-16T01:04:09.461Z,99959.88
2023-03-16T01:04:19.517Z,99960.36
2023-03-16T01:04:29.544Z,99961.34
2023-03-16T01:04:39.519Z,99964.44
2023-03-16T01:04:49.534Z,99963.79
2023-03-16T01:04:59.532Z,99958.62
2023-03-16T01:05:09.477Z,99958.46
2023-03-16T01:05:19.497Z,99957.48
2023-03-16T01:05:29.480Z,99956.61
2023-03-16T01:05:39.532Z,99964.29
2023-03-16T01:05:49.470Z,99958.41
2023-03-16T01:05:59.557Z,99960.81
2023-03-16T01:06:09.587Z,99964.44
2023-03-16T01:06:19.525Z,99963.72
2023-03-16T01:06:29.448Z,99962.47
2023-03-16T01:06:39.948Z,99962.14
2023-03-16T01:06:49.534Z,99960.73
2023-03-16T01:06:59.518Z,99959.09
2023-03-16T01:07:09.448Z,99957.80
2023-03-16T01:07:19.493Z,99962.35
2023-03-16T01:07:29.576Z,99958.66
2023-03-16T01:07:39.567Z,99968.56
2023-03-16T01:07:49.469Z,99960.16
2023-03-16T01:07:59.447Z,99958.91
2023-03-16T01:08:09.553Z,99962.95
2023-03-16T01:08:19.481Z,99959.61
2023-03-16T01:08:29.537Z,99959.52
2023-03-16T01:08:39.560Z,99963.69
2023-03-16T01:08:49.536Z,99959.98
2023-03-16T01:08:59.432Z,99961.95
2023-03-16T01:09:09.497Z,99961.45
2023-03-16T01:09:19.474Z,99966.02
2023-03-16T01:09:29.485Z,99965.80
2023-03-16T01:09:39.591Z,99965.64
2023-03-16T01:09:49.463Z,99961.41
2023-03-16T01:09:59.567Z,99964.75
2023-03-16T01:10:09.478Z,99962.38
2023-03-16T01:10:19.461Z,99964.13
2023-03-16T01:10:29.956Z,99961.73
2023-03-16T01:10:39.546Z,99961.31
2023-03-16T01:10:49.464Z,99962.22
2023-03-16T01:10:59.581Z,99961.74
2023-03-16T01:11:09.527Z,99965.11
2023-03-16T01:11:19.561Z,99959.12
2023-03-16T01:11:29.482Z,99965.23
2023-03-16T01:11:39.466Z,99959.41
2023-03-16T01:11:49.514Z,99958.88
2023-03-16T01:11:59.557Z,99959.20
2023-03-16T01:12:09.513Z,99955.37
2023-03-16T01:12:19.492Z,99965.40
2023-03-16T01:12:29.491Z,99964.45
2023-03-16T01:12:39.539Z,99960.88
2023-03-16T01:12:49.457Z,99963.59
2023-03-16T01:12:59.441Z,99961.48
2023-03-16T01:13:09.500Z,99963.31
2023-03-16T01:13:19.518Z,99962.78
2023-03-16T01:13:29.515Z,99960.17
2023-03-16T01:13:39.560Z,99963.80
2023-03-16T01:13:49.507Z,99961.80
2023-03-16T01:13:59.498Z,99962.34
2023-03-16T01:14:09.537Z,99961.73
2023-03-16T01:14:19.436Z,99962.23
2023-03-16T01:14:29.541Z,99960.16
2023-03-16T01:14:39.558Z,99959.34
2023-03-16T01:14:49.481Z,99966.41
2023-03-16T01:14:59.513Z,99965.95
2023-03-16T01:15:09.542Z,99963.95
2023-03-16T01:15:19.437Z,99960.12
2023-03-16T01:15:29.560Z,99955.12
2023-03-16T01:15:39.466Z,99955.52
2023-03-16T01:15:49.456Z,99961.27
2023-03-16T01:15:59.496Z,99961.34
2023-03-16T01:16:09.540Z,99960.78
2023-03-16T01:16:19.526Z,99959.31
2023-03-16T01:16:29.530Z,99960.84
2023-03-16T01:16:39.663Z,99959.88
2023-03-16T01:16:49.518Z,99956.70
2023-03-16T01:16:59.572Z,99962.38
2023-03-16T01:17:09.571Z,99963.67
2023-03-16T01:17:19.520Z,99960.25
2023-03-16T01:17:29.521Z,99959.55
2023-03-16T01:17:39.600Z,99960.90
2023-03-16T01:17:49.496Z,99960.86
2023-03-16T01:17:59.467Z,99957.52
2023-03-16T01:18:09.553Z,99958.17
2023-03-16T01:18:19.491Z,99953.66
2023-03-16T01:18:29.557Z,99954.31
2023-03-16T01:18:39.471Z,99955.00
2023-03-16T01:18:49.481Z,99954.61
2023-03-16T01:18:59.510Z,99955.98
2023-03-16T01:19:09.446Z,99951.09
2023-03-16T01:19:19.438Z,99952.70
2023-03-16T01:19:29.490Z,99958.97
2023-03-16T01:19:39.450Z,99959.20
2023-03-16T01:19:49.565Z,99956.42
2023-03-16T01:19:59.492Z,99957.41
2023-03-16T01:20:09.479Z,99954.14
2023-03-16T01:20:19.539Z,99953.17
2023-03-16T01:20:29.861Z,99951.41
2023-03-16T01:20:39.535Z,99951.05
2023-03-16T01:20:49.491Z,99950.34
2023-03-16T01:20:59.550Z,99953.77
2023-03-16T01:21:09.460Z,99953.84
2023-03-16T01:21:19.535Z,99950.17
2023-03-16T01:21:29.538Z,99944.52
2023-03-16T01:21:39.524Z,99951.16
2023-03-16T01:21:49.439Z,99950.88
2023-03-16T01:21:59.487Z,99946.84
2023-03-16T01:22:09.493Z,99952.84
2023-03-16T01:22:19.503Z,99952.46
2023-03-16T01:22:29.511Z,99952.88
2023-03-16T01:22:39.611Z,99948.44
2023-03-16T01:22:49.445Z,99949.38
2023-03-16T01:22:59.465Z,99948.77
2023-03-16T01:23:09.483Z,99949.25
2023-03-16T01:23:19.548Z,99948.48
2023-03-16T01:23:29.449Z,99950.03
2023-03-16T01:23:39.434Z,99952.72
2023-03-16T01:23:49.458Z,99950.06
2023-03-16T01:23:59.583Z,99950.44
2023-03-16T01:24:09.550Z,99951.86
2023-03-16T01:24:19.532Z,99948.97
2023-03-16T01:24:29.540Z,99946.77
2023-03-16T01:24:39.553Z,99947.34
2023-03-16T01:24:49.504Z,99954.63
2023-03-16T01:24:59.487Z,99948.48
2023-03-16T01:25:09.465Z,99945.55
2023-03-16T01:25:19.547Z,99952.56
2023-03-16T01:25:29.496Z,99948.27
2023-03-16T01:25:39.485Z,99950.37
2023-03-16T01:25:49.522Z,99947.20
2023-03-16T01:25:59.489Z,99945.37
2023-03-16T01:26:09.484Z,99947.20
2023-03-16T01:26:19.541Z,99952.42
2023-03-16T01:26:29.513Z,99947.00
2023-03-16T01:26:39.483Z,99951.45
2023-03-16T01:26:49.456Z,99951.61
2023-03-16T01:26:59.520Z,99949.61
2023-03-16T01:27:09.508Z,99950.42
2023-03-16T01:27:19.571Z,99947.36
2023-03-16T01:27:29.501Z,99950.95
2023-03-16T01:27:39.454Z,99951.45
2023-03-16T01:27:49.496Z,99945.79
2023-03-16T01:27:59.570Z,99947.09
2023-03-16T01:28:09.537Z,99948.19
2023-03-16T01:28:19.449Z,99948.19
2023-03-16T01:28:29.540Z,99947.70
2023-03-16T01:28:39.470Z,99948.89
2023-03-16T01:28:49.507Z,99946.23
2023-03-16T01:28:59.584Z,99948.69
2023-03-16T01:29:09.552Z,99948.03
2023-03-16T01:29:19.447Z,99941.38
2023-03-16T01:29:29.495Z,99942.32
2023-03-16T01:29:39.568Z,99947.86
2023-03-16T01:29:49.442Z,99944.00
2023-03-16T01:29:59.461Z,99943.78
2023-03-16T01:30:09.518Z,99943.83
2023-03-16T01:30:19.498Z,99936.20
2023-03-16T01:30:29.798Z,99940.69
2023-03-16T01:30:39.506Z,99939.48
2023-03-16T01:30:49.553Z,99944.75
2023-03-16T01:30:59.614Z,99945.68
2023-03-16T01:31:09.618Z,99940.71
2023-03-16T01:31:19.544Z,99941.20
2023-03-16T01:31:29.511Z,99942.02
2023-03-16T01:31:39.463Z,99937.62
2023-03-16T01:31:49.480Z,99945.89
2023-03-16T01:31:59.515Z,99939.09
2023-03-16T01:32:09.533Z,99941.44
2023-03-16T01:32:19.499Z,99939.36
2023-03-16T01:32:29.550Z,99940.17
2023-03-16T01:32:39.598Z,99939.69
2023-03-16T01:32:49.590Z,99939.96
2023-03-16T01:32:59.555Z,99943.88
2023-03-16T01:33:09.625Z,99941.10
2023-03-16T01:33:19.512Z,99944.12
2023-03-16T01:33:29.508Z,99941.34
2023-03-16T01:33:39.500Z,99937.75
2023-03-16T01:33:49.508Z,99941.50
2023-03-16T01:33:59.430Z,99945.91
2023-03-16T01:34:09.429Z,99944.77
2023-03-16T01:34:19.529Z,99939.80
2023-03-16T01:34:29.440Z,99939.48
2023-03-16T01:34:39.562Z,99938.94
2023-03-16T01:34:49.486Z,99938.66
2023-03-16T01:34:59.519Z,99944.48
2023-03-16T01:35:09.462Z,99942.25
2023-03-16T01:35:19.527Z,99940.77
2023-03-16T01:35:29.517Z,99938.16
2023-03-16T01:35:39.520Z,99943.50
2023-03-16T01:35:49.471Z,99938.50
2023-03-16T01:35:59.562Z,99938.02
2023-03-16T01:36:09.504Z,99936.42
2023-03-16T01:36:19.426Z,99940.77
2023-03-16T01:36:29.574Z,99939.63
2023-03-16T01:36:39.531Z,99940.62
2023-03-16T01:36:49.506Z,99938.50
2023-03-16T01:36:59.538Z,99943.27
2023-03-16T01:37:09.446Z,99942.46
2023-03-16T01:37:19.496Z,99939.73
2023-03-16T01:37:29.465Z,99940.72
2023-03-16T01:37:39.473Z,99941.20
2023-03-16T01:37:49.593Z,99935.83
2023-03-16T01:37:59.568Z,99938.59
2023-03-16T01:38:09.446Z,99938.11
2023-03-16T01:38:19.479Z,99939.20
2023-03-16T01:38:29.475Z,99937.23
2023-03-16T01:38:39.508Z,99941.36
2023-03-16T01:38:49.466Z,99938.91
2023-03-16T01:38:59.557Z,99940.22
2023-03-16T01:39:09.546Z,99936.15
2023-03-16T01:39:19.517Z,99936.36
2023-03-16T01:39:29.437Z,99936.64
2023-03-16T01:39:39.440Z,99936.03
2023-03-16T01:39:49.490Z,99934.69
2023-03-16T01:39:59.548Z,99938.92
2023-03-16T01:40:09.474Z,99938.75
2023-03-16T01:40:19.497Z,99938.55
2023-03-16T01:40:29.896Z,99942.67
2023-03-16T01:40:39.451Z,99942.44
2023-03-16T01:40:49.575Z,99942.02
2023-03-16T01:40:59.517Z,99944.47
2023-03-16T01:41:09.528Z,99940.59
2023-03-16T01:41:19.483Z,99937.17
2023-03-16T01:41:29.483Z,99941.14
2023-03-16T01:41:39.451Z,99934.33
2023-03-16T01:41:49.484Z,99938.79
2023-03-16T01:41:59.535Z,99938.09
2023-03-16T01:42:09.500Z,99936.90
2023-03-16T01:42:19.498Z,99931.29
2023-03-16T01:42:29.553Z,99935.15
2023-03-16T01:42:39.557Z,99935.31
2023-03-16T01:42:49.572Z,99935.91
2023-03-16T01:42:59.476Z,99933.23
2023-03-16T01:43:09.437Z,99934.22
2023-03-16T01:43:19.497Z,99936.10
2023-03-16T01:43:29.507Z,99934.96
2023-03-16T01:43:39.434Z,99934.96
2023-03-16T01:43:49.490Z,99936.48
2023-03-16T01:43:59.575Z,99931.06
2023-03-16T01:44:09.559Z,99938.39
2023-03-16T01:44:19.585Z,99936.55
2023-03-16T01:44:29.476Z,99933.66
2023-03-16T01:44:39.486Z,99931.82
2023-03-16T01:44:49.520Z,99933.34
2023-03-16T01:44:59.539Z,99936.10
2023-03-16T01:45:09.502Z,99941.39
2023-03-16T01:45:19.554Z,99940.89
2023-03-16T01:45:29.495Z,99940.34
2023-03-16T01:45:39.523Z,99937.41
2023-03-16T01:45:49.562Z,99933.99
2023-03-16T01:45:59.589Z,99938.06
2023-03-16T01:46:09.561Z,99936.06
2023-03-16T01:46:19.617Z,99940.42
2023-03-16T01:46:29.678Z,99935.53
2023-03-16T01:46:39.495Z,99936.84
2023-03-16T01:46:49.547Z,99937.76
2023-03-16T01:46:59.490Z,99938.95
2023-03-16T01:47:09.528Z,99935.86
2023-03-16T01:47:19.564Z,99933.90
2023-03-16T01:47:29.459Z,99936.66
2023-03-16T01:47:39.450Z,99937.88
2023-03-16T01:47:49.466Z,99935.64
2023-03-16T01:47:59.576Z,99935.11
2023-03-16T01:48:09.539Z,99937.06
2023-03-16T01:48:19.445Z,99937.54
2023-03-16T01:48:30.148Z,99934.28
2023-03-16T01:48:39.510Z,99930.86
2023-03-16T01:48:49.529Z,99933.64
2023-03-16T01:48:59.430Z,99930.42
2023-03-16T01:49:09.518Z,99933.69
2023-03-16T01:49:19.502Z,99936.40
2023-03-16T01:49:29.429Z,99935.05
2023-03-16T01:49:39.521Z,99934.95
2023-03-16T01:49:49.525Z,99932.33
2023-03-16T01:49:59.580Z,99934.83
2023-03-16T01:50:09.434Z,99934.33
2023-03-16T01:50:19.563Z,99934.21
2023-03-16T01:50:29.956Z,99932.15
2023-03-16T01:50:39.547Z,99932.27
2023-03-16T01:50:49.438Z,99931.66
2023-03-16T01:50:59.497Z,99934.83
2023-03-16T01:51:09.485Z,99935.52
2023-03-16T01:51:19.512Z,99935.53
2023-03-16T01:51:29.444Z,99932.86
2023-03-16T01:51:39.486Z,99937.11
2023-03-16T01:51:49.452Z,99935.44
2023-03-16T01:51:59.486Z,99936.08
2023-03-16T01:52:09.487Z,99934.45
2023-03-16T01:52:19.551Z,99933.42
2023-03-16T01:52:29.515Z,99933.09
2023-03-16T01:52:39.532Z,99936.03
2023-03-16T01:52:49.552Z,99931.80
2023-03-16T01:52:59.453Z,99932.05
2023-03-16T01:53:09.549Z,99930.47
2023-03-16T01:53:19.513Z,99933.80
2023-03-16T01:53:29.440Z,99932.66
2023-03-16T01:53:39.546Z,99931.84
2023-03-16T01:53:49.434Z,99928.85
2023-03-16T01:53:59.456Z,99929.34
2023-03-16T01:54:09.441Z,99931.14
2023-03-16T01:54:19.563Z,99931.30
2023-03-16T01:54:29.448Z,99928.33
2023-03-16T01:54:39.472Z,99934.30
2023-03-16T01:54:49.504Z,99929.61
2023-03-16T01:54:59.566Z,99932.34
2023-03-16T01:55:09.535Z,99931.66
2023-03-16T01:55:19.546Z,99928.39
2023-03-16T01:55:29.525Z,99932.47
2023-03-16T01:55:39.478Z,99929.08
2023-03-16T01:55:49.511Z,99929.19
2023-03-16T01:55:59.453Z,99926.76
2023-03-16T01:56:09.498Z,99930.50
2023-03-16T01:56:19.517Z,99926.76
2023-03-16T01:56:29.539Z,99929.44
2023-03-16T01:56:39.463Z,99931.55
2023-03-16T01:56:49.580Z,99931.31
2023-03-16T01:56:59.480Z,99933.95
2023-03-16T01:57:09.661Z,99927.64
2023-03-16T01:57:19.532Z,99924.00
2023-03-16T01:57:29.519Z,99930.20